Sacheon Air Base
RKPS : now visible

Airfield :











YOU CAN JOIN US ON...

 
LOGIN :

Register | Disclaimer

   EN    FR    IT 

 









Legend :    VFR   Marginal VFR   IFR   Intensive IFR   Very Intensive IFR
Visi :
Ceiling :
>= 8 km
>= 3000ft
5 to 8 km
1000 to 3000 ft
1500m to 5 km
500 to 1000 ft
800 to 1500m
200 to 500 ft
< 800m
< 200 ft
Symbols :   Thunderstorms  Fog  Heavy snow  Heavy precipitations  Wind > 20 kt






- Airport Elevation : 25 ft
- IATA code : HIN


RKPS - Sacheon Air Base

CURRENT METAR :
  • 290900Z 20007KT 9999 FEW040 SCT160 13/04 Q1020 RMK SLP206 8/520 9/220

EXPIRED METARs :
  • 290800Z 20010KT 9999 BKN040 13/04 Q1020 RMK CIG040 SLP205 8/500 9/600
  • 290700Z 23008KT 9999 SCT050 BKN200 15/04 Q1019 RMK CIG200 SLP196 8/508 9/401

TAF TAF RKPS
Valid from the 29 at 06:00 until the 30 at 12:00 UTC


290500Z 2906/3012 24006KT CAVOK TX16/2906Z TN04/2922Z
BECMG 2912/2913 06006KT
BECMG 2915/2916 BKN180
BECMG 3000/3001 9999 SCT040 SCT200



MET'MAP, your aeronautical weather chart ! - Copyright ORBIFLY December 2007 - Disclaimer

ORBIFLY MET'MAP TEAM :

Programming & Development : Alexandra Zaïnal
Concept & original design : Baudouin d'Aumeries
Assistance for programming : Marc-Olivier Méhu
Technical & hardware support : Manuel Goepfert

Contact : metmap@orbifly.com




SOURCES & CREDITS :

   NOAA       Earth
Advisory